Time;durP1;ratioP1;P1;durP2;ratioP2;P2;SDS_P1;SDS_P2;PMS_P1;PMS_P2;Temp;Humidity;BMP_temperature;BMP_pressure;BME280_temperature;BME280_humidity;BME280_pressure;Samples;Min_cycle;Max_cycle;Signal;HPM_P1;HPM_P2
2023/01/14 00:00:14;;;;;;;38.05;21.48;;;5.30;99.90;;;;;;5046168;28;20055;-76
2023/01/14 00:02:40;;;;;;;37.38;20.77;;;5.30;99.90;;;;;;5051641;28;20028;-76
2023/01/14 00:05:05;;;;;;;38.75;20.48;;;5.20;99.90;;;;;;5057410;28;20525;-76
2023/01/14 00:07:31;;;;;;;37.40;21.38;;;5.20;99.90;;;;;;5050830;28;20533;-76
2023/01/14 00:09:57;;;;;;;33.05;19.55;;;5.10;99.90;;;;;;5057782;28;20024;-76
2023/01/14 00:12:22;;;;;;;33.78;19.17;;;5.10;99.90;;;;;;5049994;28;20025;-76
2023/01/14 00:14:48;;;;;;;34.65;19.70;;;5.20;99.90;;;;;;5050178;28;20037;-76
2023/01/14 00:17:14;;;;;;;28.10;17.83;;;5.40;99.90;;;;;;5050182;28;20017;-76
2023/01/14 00:19:39;;;;;;;34.42;18.20;;;5.40;99.90;;;;;;5050684;28;20506;-76
2023/01/14 00:22:05;;;;;;;32.70;18.95;;;5.10;99.90;;;;;;5050283;28;20470;-76
2023/01/14 00:24:31;;;;;;;32.10;17.38;;;4.70;99.90;;;;;;5054233;28;20382;-77
2023/01/14 00:26:57;;;;;;;29.00;17.73;;;4.80;99.90;;;;;;5049929;28;20394;-76
2023/01/14 00:29:31;;;;;;;24.45;15.73;;;5.00;99.90;;;;;;5049717;28;20041;-76
2023/01/14 00:31:59;;;;;;;24.13;15.23;;;4.90;99.90;;;;;;5050377;28;20021;-76
2023/01/14 00:34:27;;;;;;;26.25;15.88;;;4.90;99.90;;;;;;5044871;28;20087;-75
2023/01/14 00:36:53;;;;;;;25.73;14.95;;;4.90;99.90;;;;;;5050028;28;20021;-76
2023/01/14 00:39:19;;;;;;;26.13;14.80;;;4.80;99.90;;;;;;5052388;28;20060;-76
2023/01/14 00:41:45;;;;;;;23.08;13.95;;;4.90;99.90;;;;;;5053913;28;20079;-76
2023/01/14 00:44:11;;;;;;;22.65;14.05;;;4.80;99.90;;;;;;5054173;28;20029;-76
2023/01/14 00:46:38;;;;;;;22.17;13.30;;;4.80;99.90;;;;;;5054359;28;20017;-75
2023/01/14 00:49:06;;;;;;;19.17;13.02;;;4.80;99.90;;;;;;5063663;28;20025;-76
2023/01/14 00:51:32;;;;;;;19.90;12.52;;;4.70;99.90;;;;;;5054384;28;20021;-76
2023/01/14 00:53:59;;;;;;;19.63;12.60;;;4.70;99.90;;;;;;5053202;28;20112;-76
2023/01/14 00:56:25;;;;;;;17.95;12.65;;;4.70;99.90;;;;;;5053682;28;20017;-76
2023/01/14 00:58:51;;;;;;;18.23;11.80;;;4.70;99.90;;;;;;5053996;28;20112;-75
2023/01/14 01:01:17;;;;;;;17.52;11.50;;;4.70;99.90;;;;;;5053647;28;20107;-76
2023/01/14 01:03:48;;;;;;;18.20;10.43;;;4.70;99.90;;;;;;5052980;28;20043;-76
2023/01/14 01:06:16;;;;;;;16.35;10.38;;;4.80;99.90;;;;;;5049433;28;20057;-75
2023/01/14 01:08:42;;;;;;;16.20;10.10;;;4.70;99.90;;;;;;5052517;28;20029;-76
2023/01/14 01:11:08;;;;;;;15.23;10.30;;;4.60;99.90;;;;;;5053522;28;20480;-75
2023/01/14 01:13:35;;;;;;;18.00;11.45;;;4.50;99.90;;;;;;5050372;28;20070;-76
2023/01/14 01:16:07;;;;;;;16.30;10.43;;;4.50;99.90;;;;;;5053985;28;20017;-76
2023/01/14 01:18:34;;;;;;;14.88;9.75;;;4.20;99.90;;;;;;5055107;28;20027;-75
2023/01/14 01:21:04;;;;;;;15.73;10.63;;;4.20;99.90;;;;;;5053943;28;20025;-75
2023/01/14 01:23:30;;;;;;;14.02;9.25;;;4.20;99.90;;;;;;5053506;28;20036;-76
2023/01/14 01:26:00;;;;;;;15.55;9.38;;;4.30;99.90;;;;;;5048288;28;20036;-76
2023/01/14 01:28:26;;;;;;;13.25;9.65;;;4.30;99.90;;;;;;5052069;28;20429;-76
2023/01/14 01:30:51;;;;;;;13.30;9.32;;;4.30;99.90;;;;;;5053924;28;20048;-76
2023/01/14 01:33:17;;;;;;;15.55;9.63;;;4.10;99.90;;;;;;5053107;28;20021;-76
2023/01/14 01:35:43;;;;;;;13.70;9.80;;;4.00;99.90;;;;;;5052957;28;20059;-76
2023/01/14 01:38:09;;;;;;;17.00;9.35;;;4.00;99.90;;;;;;5053322;28;20106;-76
2023/01/14 01:40:34;;;;;;;15.77;10.10;;;3.90;99.90;;;;;;5048512;28;20036;-76
2023/01/14 01:43:00;;;;;;;14.18;8.88;;;4.00;99.90;;;;;;5049589;28;20115;-75
2023/01/14 01:45:48;;;;;;;13.02;8.38;;;4.10;99.90;;;;;;5060464;28;20028;-76
2023/01/14 01:48:22;;;;;;;11.52;7.93;;;4.10;99.90;;;;;;5053268;28;20029;-78
2023/01/14 01:51:05;;;;;;;12.77;7.30;;;4.10;99.90;;;;;;5052005;28;20245;-76
2023/01/14 01:53:38;;;;;;;11.60;7.93;;;4.10;99.90;;;;;;5054558;28;20052;-76
2023/01/14 01:56:05;;;;;;;12.77;8.23;;;4.00;99.90;;;;;;5053523;28;20100;-76
2023/01/14 01:58:32;;;;;;;12.40;7.60;;;3.90;99.90;;;;;;5053390;28;20057;-77
2023/01/14 02:00:58;;;;;;;10.40;7.55;;;3.90;99.90;;;;;;5051979;28;20112;-76
2023/01/14 02:03:35;;;;;;;11.65;7.63;;;3.90;99.90;;;;;;5053842;28;20104;-76
2023/01/14 02:06:00;;;;;;;11.15;7.07;;;3.90;99.90;;;;;;5038369;28;20025;-76
2023/01/14 02:08:26;;;;;;;14.55;8.15;;;3.90;99.90;;;;;;5049576;28;20029;-76
2023/01/14 02:11:30;;;;;;;14.30;8.50;;;3.90;99.90;;;;;;5039566;28;20449;-76
2023/01/14 02:14:35;;;;;;;14.27;8.52;;;3.90;99.90;;;;;;5049984;28;20028;-76
2023/01/14 02:17:15;;;;;;;14.23;9.05;;;4.10;99.90;;;;;;5049888;28;20029;-76
2023/01/14 02:20:08;;;;;;;13.98;8.30;;;4.00;99.90;;;;;;5050219;28;20040;-76
2023/01/14 02:23:04;;;;;;;15.35;8.68;;;4.00;99.90;;;;;;5033333;28;20033;-76
2023/01/14 02:25:45;;;;;;;13.38;8.48;;;4.10;99.90;;;;;;5052728;28;20124;-76
2023/01/14 02:28:32;;;;;;;11.23;7.28;;;4.00;99.90;;;;;;5050212;28;20029;-76
2023/01/14 02:31:25;;;;;;;12.20;7.88;;;4.00;99.90;;;;;;5024872;28;20045;-76
2023/01/14 02:33:57;;;;;;;11.35;7.57;;;4.10;99.90;;;;;;5033301;28;20017;-76
2023/01/14 02:36:47;;;;;;;12.85;8.05;;;4.00;99.90;;;;;;5049679;28;20079;-75
2023/01/14 02:39:19;;;;;;;12.27;7.87;;;4.00;99.90;;;;;;5033033;28;20029;-76
2023/01/14 02:44:43;;;;;;;10.77;6.85;;;4.00;99.90;;;;;;5055174;28;20601;-75
2023/01/14 02:47:16;;;;;;;10.82;6.90;;;3.90;99.90;;;;;;5049225;28;20032;-75
2023/01/14 02:49:45;;;;;;;12.25;7.47;;;4.00;99.90;;;;;;5052765;28;20024;-76
2023/01/14 02:52:11;;;;;;;11.52;7.18;;;3.90;99.90;;;;;;5044571;28;20021;-75
2023/01/14 02:54:37;;;;;;;10.82;7.07;;;4.00;99.90;;;;;;5049899;28;20049;-76
2023/01/14 02:57:13;;;;;;;11.00;6.78;;;4.00;99.90;;;;;;5048560;28;20161;-75
2023/01/14 02:59:55;;;;;;;11.00;6.63;;;4.00;99.90;;;;;;5056294;28;20021;-76
2023/01/14 03:02:21;;;;;;;8.77;5.90;;;3.90;99.90;;;;;;5051535;28;20143;-76
2023/01/14 03:05:08;;;;;;;10.35;6.00;;;3.90;99.90;;;;;;5061262;28;20490;-78
2023/01/14 03:07:45;;;;;;;8.55;5.90;;;3.90;99.90;;;;;;5051745;28;20025;-76
2023/01/14 03:10:17;;;;;;;11.38;6.18;;;3.90;99.90;;;;;;5063122;28;20027;-78
2023/01/14 03:12:54;;;;;;;7.00;5.25;;;3.90;99.90;;;;;;5051881;28;20098;-76
2023/01/14 03:15:39;;;;;;;9.50;6.05;;;3.90;99.90;;;;;;5061291;28;20107;-77
2023/01/14 03:18:10;;;;;;;8.00;5.55;;;4.00;99.90;;;;;;5051618;28;20048;-76
2023/01/14 03:20:43;;;;;;;8.73;5.95;;;4.00;99.90;;;;;;5059987;28;20028;-77
2023/01/14 03:23:13;;;;;;;8.85;5.63;;;4.00;99.90;;;;;;5051133;28;20041;-76
2023/01/14 03:25:43;;;;;;;9.15;6.40;;;4.00;99.90;;;;;;5051301;28;20021;-77
2023/01/14 03:28:14;;;;;;;9.60;5.95;;;3.80;99.90;;;;;;5049133;28;20132;-76
2023/01/14 03:30:44;;;;;;;10.02;6.47;;;3.80;99.90;;;;;;5050730;28;20045;-76
2023/01/14 03:33:39;;;;;;;8.43;5.93;;;3.80;99.90;;;;;;5051514;28;20052;-75
2023/01/14 03:36:06;;;;;;;8.10;5.35;;;3.90;99.90;;;;;;5054956;28;20033;-76
2023/01/14 03:38:43;;;;;;;8.73;6.00;;;4.00;99.90;;;;;;5051425;28;20021;-76
2023/01/14 03:42:17;;;;;;;9.23;6.43;;;3.90;99.90;;;;;;5054325;28;20546;-77
2023/01/14 03:44:01;;;;;;;8.55;6.05;;;3.80;99.90;;;;;;5051297;28;20033;-77
2023/01/14 03:46:27;;;;;;;9.50;6.70;;;3.90;99.90;;;;;;5050853;28;20094;-77
2023/01/14 03:48:53;;;;;;;11.80;7.57;;;3.90;99.90;;;;;;5050940;28;20027;-76
2023/01/14 03:51:31;;;;;;;11.15;6.72;;;3.90;99.90;;;;;;5050601;28;20422;-77
2023/01/14 03:54:14;;;;;;;10.57;6.88;;;3.90;99.90;;;;;;5050718;28;20021;-76
2023/01/14 03:57:00;;;;;;;11.23;6.93;;;3.80;99.90;;;;;;5050740;28;20033;-76
2023/01/14 03:59:41;;;;;;;10.38;6.97;;;3.80;99.90;;;;;;5049298;28;20025;-77
2023/01/14 04:02:09;;;;;;;11.45;6.93;;;3.70;99.90;;;;;;5047009;28;20036;-76
2023/01/14 04:04:36;;;;;;;12.40;7.07;;;3.80;99.90;;;;;;5049030;28;20557;-75
2023/01/14 04:07:02;;;;;;;12.90;7.32;;;3.80;99.90;;;;;;5050577;28;20037;-76
2023/01/14 04:09:28;;;;;;;10.95;6.68;;;3.70;99.90;;;;;;5050924;28;20047;-76
2023/01/14 04:11:53;;;;;;;9.77;7.20;;;3.70;99.90;;;;;;5050248;28;20550;-76
2023/01/14 04:17:04;;;;;;;9.32;6.45;;;3.80;99.90;;;;;;5050470;28;20522;-76
2023/01/14 04:19:29;;;;;;;9.48;6.82;;;3.70;99.90;;;;;;5053556;28;20021;-76
2023/01/14 04:21:55;;;;;;;9.50;6.68;;;3.50;99.90;;;;;;5052255;28;20513;-76
2023/01/14 04:24:21;;;;;;;10.07;6.13;;;3.50;99.90;;;;;;5050533;28;20009;-76
2023/01/14 04:26:46;;;;;;;10.65;6.63;;;3.60;99.90;;;;;;5050293;28;20490;-76
2023/01/14 04:29:13;;;;;;;10.52;6.72;;;3.60;99.90;;;;;;5050129;28;20563;-76
2023/01/14 04:31:38;;;;;;;9.00;6.35;;;3.50;99.90;;;;;;5050178;28;20029;-76
2023/01/14 04:34:04;;;;;;;10.30;6.40;;;3.50;99.90;;;;;;5045850;28;20117;-76
2023/01/14 04:36:30;;;;;;;8.70;5.65;;;3.40;99.90;;;;;;5048545;28;20040;-76
2023/01/14 04:38:55;;;;;;;10.77;6.55;;;3.50;99.90;;;;;;5050593;28;20544;-76
2023/01/14 04:44:05;;;;;;;10.25;6.88;;;3.50;99.90;;;;;;5050209;28;20159;-76
2023/01/14 04:46:31;;;;;;;12.90;7.18;;;3.30;99.90;;;;;;5050188;28;20108;-76
2023/01/14 04:48:57;;;;;;;10.95;6.65;;;3.40;99.90;;;;;;5045113;28;20559;-76
2023/01/14 04:51:22;;;;;;;12.85;7.43;;;3.30;99.90;;;;;;5064239;28;20021;-76
2023/01/14 04:53:48;;;;;;;11.75;7.00;;;3.40;99.90;;;;;;5050205;28;20017;-76
2023/01/14 04:56:14;;;;;;;11.00;6.78;;;3.40;99.90;;;;;;5059553;28;20506;-76
2023/01/14 04:58:39;;;;;;;10.98;7.00;;;3.40;99.90;;;;;;5048608;28;20475;-76
2023/01/14 05:01:05;;;;;;;11.07;7.00;;;3.40;99.90;;;;;;5057271;28;20517;-76
2023/01/14 05:03:31;;;;;;;10.38;6.57;;;3.30;99.90;;;;;;5045128;28;20045;-76
2023/01/14 05:05:56;;;;;;;12.35;7.00;;;3.20;99.90;;;;;;5049081;28;20506;-76
2023/01/14 05:08:22;;;;;;;13.55;7.20;;;3.20;99.90;;;;;;5049783;28;20456;-76
2023/01/14 05:10:49;;;;;;;14.55;7.75;;;3.10;99.90;;;;;;5050410;28;20100;-76
2023/01/14 05:13:15;;;;;;;18.27;9.25;;;3.20;99.90;;;;;;5048388;28;20060;-76
2023/01/14 05:15:42;;;;;;;18.20;8.95;;;3.20;99.90;;;;;;5049622;28;20056;-76
2023/01/14 05:18:11;;;;;;;18.63;9.05;;;3.00;99.90;;;;;;5049694;28;20033;-76
2023/01/14 05:20:37;;;;;;;20.70;10.40;;;3.10;99.90;;;;;;5050386;28;20028;-76
2023/01/14 05:23:05;;;;;;;18.33;9.27;;;3.00;99.90;;;;;;5050401;28;20056;-76
2023/01/14 05:25:32;;;;;;;19.25;9.85;;;3.00;99.90;;;;;;5046255;28;20025;-76
2023/01/14 05:28:03;;;;;;;20.17;9.90;;;2.90;99.90;;;;;;5046696;28;20025;-76
2023/01/14 05:30:29;;;;;;;16.73;9.45;;;3.00;99.90;;;;;;5060772;28;20129;-76
2023/01/14 05:32:55;;;;;;;19.83;9.20;;;3.00;99.90;;;;;;5059088;28;20610;-76
2023/01/14 05:35:21;;;;;;;16.92;8.63;;;2.90;99.90;;;;;;5057477;28;20021;-76
2023/01/14 05:37:46;;;;;;;13.50;8.20;;;2.90;99.90;;;;;;5058651;28;20037;-75
2023/01/14 05:40:12;;;;;;;20.23;8.05;;;2.80;99.90;;;;;;5053761;28;20375;-76
2023/01/14 05:48:07;;;;;;;12.75;7.32;;;2.80;99.90;;;;;;5053032;28;20028;-76
2023/01/14 05:50:33;;;;;;;13.80;8.05;;;2.90;99.90;;;;;;5058275;28;20024;-76
2023/01/14 05:52:58;;;;;;;13.20;7.10;;;2.90;99.90;;;;;;5054344;28;20032;-76
2023/01/14 05:55:24;;;;;;;11.27;6.55;;;2.90;99.90;;;;;;5057976;28;20028;-76
2023/01/14 05:57:50;;;;;;;10.80;6.38;;;2.90;99.90;;;;;;5053763;28;20052;-76
2023/01/14 06:08:30;;;;;;;11.38;6.10;;;2.90;99.90;;;;;;5010659;28;20127;-76
2023/01/14 06:10:56;;;;;;;8.85;6.03;;;2.90;99.90;;;;;;4995032;28;20042;-76
2023/01/14 06:13:22;;;;;;;8.25;5.55;;;2.90;99.90;;;;;;5000332;28;20038;-75
2023/01/14 06:15:51;;;;;;;10.02;6.57;;;3.00;99.90;;;;;;5010251;28;20037;-76
2023/01/14 06:18:22;;;;;;;11.13;6.85;;;3.00;99.90;;;;;;5010423;28;20034;-76
2023/01/14 06:20:52;;;;;;;10.23;6.70;;;3.10;99.90;;;;;;5010565;28;20083;-76
2023/01/14 06:23:21;;;;;;;10.45;6.60;;;3.10;99.90;;;;;;5010276;28;20042;-76
2023/01/14 06:25:48;;;;;;;10.55;6.75;;;3.10;99.90;;;;;;5016722;28;20578;-76
2023/01/14 06:28:15;;;;;;;10.30;6.35;;;3.20;99.90;;;;;;5013790;28;20041;-76
2023/01/14 06:30:41;;;;;;;9.27;6.10;;;3.10;99.90;;;;;;4998628;28;20041;-76
2023/01/14 06:33:07;;;;;;;9.23;5.82;;;3.10;99.90;;;;;;5013475;28;20045;-76
2023/01/14 06:35:34;;;;;;;7.68;5.53;;;3.10;99.90;;;;;;5013805;28;20049;-76
2023/01/14 06:38:00;;;;;;;7.82;5.65;;;3.10;99.90;;;;;;4996610;28;20496;-76
2023/01/14 06:40:26;;;;;;;9.52;5.80;;;3.20;99.90;;;;;;5009854;28;20048;-76
2023/01/14 06:42:55;;;;;;;9.05;5.93;;;3.10;99.90;;;;;;5013892;28;20144;-76
2023/01/14 06:45:22;;;;;;;7.97;5.63;;;3.10;99.90;;;;;;5053465;28;20029;-76
2023/01/14 06:47:48;;;;;;;7.78;5.32;;;3.20;99.90;;;;;;5053289;28;20025;-76
2023/01/14 06:50:17;;;;;;;9.43;5.85;;;3.00;99.90;;;;;;5051944;28;20036;-76
2023/01/14 06:52:43;;;;;;;8.98;5.90;;;2.90;99.90;;;;;;5046756;28;20038;-76
2023/01/14 06:55:08;;;;;;;8.70;5.38;;;2.80;99.90;;;;;;5042795;28;20100;-76
2023/01/14 06:57:34;;;;;;;7.28;5.20;;;2.80;99.90;;;;;;5053636;28;20112;-76
2023/01/14 07:00:00;;;;;;;6.43;4.95;;;2.90;99.90;;;;;;5050906;28;20115;-76
2023/01/14 07:02:25;;;;;;;6.53;4.90;;;3.00;99.90;;;;;;5051779;28;20037;-76
2023/01/14 07:04:51;;;;;;;7.53;4.75;;;3.00;99.90;;;;;;5052389;28;20479;-76
2023/01/14 07:07:17;;;;;;;8.60;5.50;;;3.10;99.90;;;;;;5051424;28;20028;-75
2023/01/14 07:09:43;;;;;;;6.38;4.70;;;3.10;99.90;;;;;;5051815;28;20014;-76
2023/01/14 07:12:08;;;;;;;7.05;5.10;;;3.00;99.90;;;;;;5063448;28;20029;-77
2023/01/14 07:14:34;;;;;;;6.43;5.15;;;3.00;99.90;;;;;;5050801;28;20059;-76
2023/01/14 07:17:03;;;;;;;7.10;5.13;;;2.90;99.90;;;;;;5061659;28;20036;-76
2023/01/14 07:19:29;;;;;;;5.93;4.88;;;3.00;99.90;;;;;;5040849;28;20025;-76
2023/01/14 07:21:54;;;;;;;7.38;4.70;;;3.00;99.90;;;;;;5047603;28;20506;-76
2023/01/14 07:24:20;;;;;;;5.45;4.38;;;3.10;99.90;;;;;;5051046;28;20712;-76
2023/01/14 07:26:46;;;;;;;5.88;4.82;;;3.00;99.90;;;;;;5054183;28;20053;-76
2023/01/14 07:29:12;;;;;;;5.75;4.60;;;3.00;99.90;;;;;;5046437;28;20052;-75
2023/01/14 07:31:37;;;;;;;6.38;4.45;;;3.00;99.90;;;;;;5048735;28;20021;-76
2023/01/14 07:34:03;;;;;;;6.43;4.82;;;3.00;99.90;;;;;;5047853;28;20483;-76
2023/01/14 07:36:29;;;;;;;6.68;4.88;;;3.00;99.90;;;;;;5047899;28;20379;-76
2023/01/14 07:38:55;;;;;;;5.53;4.20;;;3.00;99.90;;;;;;5041038;28;20498;-76
2023/01/14 07:41:22;;;;;;;7.07;4.53;;;3.10;99.90;;;;;;5038120;28;20021;-76
2023/01/14 07:43:48;;;;;;;6.80;4.68;;;3.10;99.90;;;;;;5050389;28;20106;-76
2023/01/14 07:46:15;;;;;;;5.85;4.32;;;3.10;99.90;;;;;;5050987;28;20075;-76
2023/01/14 07:48:41;;;;;;;6.43;4.30;;;3.10;99.90;;;;;;5045657;28;20140;-76
2023/01/14 07:51:08;;;;;;;6.00;4.43;;;3.20;99.90;;;;;;5048265;28;20143;-76
2023/01/14 07:53:34;;;;;;;6.38;4.50;;;3.20;99.90;;;;;;5046356;28;20024;-76
2023/01/14 07:56:05;;;;;;;5.85;4.50;;;3.30;99.90;;;;;;5051412;28;20582;-76
2023/01/14 07:58:32;;;;;;;6.13;4.88;;;3.30;99.90;;;;;;5058370;28;20096;-76
2023/01/14 08:00:58;;;;;;;6.50;4.65;;;3.40;99.90;;;;;;5050750;28;20064;-76
2023/01/14 08:03:24;;;;;;;6.30;5.07;;;3.40;99.90;;;;;;5050615;28;20574;-76
2023/01/14 08:05:50;;;;;;;7.60;5.05;;;3.50;99.90;;;;;;5052051;28;20158;-76
2023/01/14 08:08:16;;;;;;;8.07;5.10;;;3.50;99.90;;;;;;5058723;28;20106;-76
2023/01/14 08:10:42;;;;;;;6.95;4.80;;;3.50;99.90;;;;;;5050111;28;20072;-76
2023/01/14 08:13:11;;;;;;;7.22;5.57;;;3.50;99.90;;;;;;5056944;28;20534;-76
2023/01/14 08:15:37;;;;;;;7.30;5.60;;;3.60;99.90;;;;;;5050852;28;20597;-76
2023/01/14 08:18:03;;;;;;;6.80;5.43;;;3.70;99.90;;;;;;5056861;28;20131;-76
2023/01/14 08:20:29;;;;;;;8.43;6.50;;;3.80;99.90;;;;;;5031796;28;20029;-76
2023/01/14 08:22:59;;;;;;;8.15;6.22;;;3.70;99.90;;;;;;5053903;28;20509;-76
2023/01/14 08:25:26;;;;;;;9.45;7.22;;;3.70;99.90;;;;;;5042991;28;20052;-76
2023/01/14 08:27:51;;;;;;;10.63;6.95;;;3.80;99.90;;;;;;5040482;28;20033;-76
2023/01/14 08:30:17;;;;;;;12.75;7.85;;;3.90;99.90;;;;;;5046398;28;20056;-76
2023/01/14 08:32:43;;;;;;;10.82;7.30;;;4.00;99.90;;;;;;5058989;28;20021;-76
2023/01/14 08:35:09;;;;;;;11.32;7.53;;;4.10;99.90;;;;;;5035386;28;20406;-76
2023/01/14 08:37:36;;;;;;;11.52;8.68;;;4.30;99.90;;;;;;5041428;28;20025;-76
2023/01/14 08:40:02;;;;;;;11.52;8.40;;;4.30;99.90;;;;;;5043957;28;20040;-76
2023/01/14 08:42:27;;;;;;;11.57;8.40;;;4.40;99.90;;;;;;5044500;28;20487;-76
2023/01/14 08:44:53;;;;;;;11.88;8.10;;;4.40;99.90;;;;;;5046571;28;20025;-76
2023/01/14 08:47:19;;;;;;;11.40;7.70;;;4.60;99.90;;;;;;5047464;28;20029;-76
2023/01/14 08:49:46;;;;;;;12.15;8.40;;;5.10;99.90;;;;;;5046582;28;20028;-76
2023/01/14 08:52:11;;;;;;;11.80;8.50;;;5.50;99.90;;;;;;5048850;28;20021;-76
2023/01/14 08:54:38;;;;;;;13.63;8.57;;;5.20;99.90;;;;;;5046515;28;20083;-76
2023/01/14 08:57:03;;;;;;;9.98;7.90;;;5.50;99.90;;;;;;5050800;28;20029;-76
2023/01/14 08:59:29;;;;;;;10.13;8.07;;;5.70;99.90;;;;;;5048507;28;20017;-76
2023/01/14 09:01:55;;;;;;;10.23;7.07;;;5.40;99.90;;;;;;5055433;28;20166;-76
2023/01/14 09:04:22;;;;;;;9.65;7.25;;;5.30;99.90;;;;;;5053168;28;20050;-76
2023/01/14 09:17:44;;;;;;;10.18;6.95;;;6.80;99.90;;;;;;5053730;28;20059;-76
2023/01/14 09:20:12;;;;;;;8.38;6.13;;;7.60;99.90;;;;;;5049526;28;20025;-76
2023/01/14 09:22:38;;;;;;;7.85;5.75;;;7.90;99.90;;;;;;5053651;28;20075;-76
2023/01/14 09:25:04;;;;;;;8.55;6.07;;;7.40;99.90;;;;;;5052543;28;20255;-77
2023/01/14 09:27:31;;;;;;;7.03;5.35;;;8.60;99.90;;;;;;5053796;28;20087;-76
2023/01/14 09:29:57;;;;;;;8.68;5.75;;;10.00;99.90;;;;;;5053280;28;20094;-76
2023/01/14 09:32:23;;;;;;;9.65;5.68;;;9.00;99.90;;;;;;5054647;28;20558;-76
2023/01/14 09:34:50;;;;;;;8.60;5.38;;;8.10;99.90;;;;;;5040002;28;20074;-76
2023/01/14 09:37:21;;;;;;;6.85;5.35;;;7.30;99.90;;;;;;5062891;28;20029;-76
2023/01/14 09:39:49;;;;;;;5.85;4.90;;;7.10;99.90;;;;;;5050838;28;20049;-76
2023/01/14 09:42:22;;;;;;;6.97;5.55;;;7.10;99.90;;;;;;5044921;28;20024;-77
2023/01/14 09:44:47;;;;;;;7.22;5.07;;;6.70;99.90;;;;;;5048783;28;20026;-76
2023/01/14 09:47:23;;;;;;;7.55;5.10;;;6.70;99.90;;;;;;5044429;28;20059;-77
2023/01/14 09:49:52;;;;;;;5.25;4.43;;;6.80;99.90;;;;;;5047933;28;20037;-76
2023/01/14 09:52:47;;;;;;;7.40;5.05;;;6.70;99.90;;;;;;5054393;28;20202;-76
2023/01/14 09:55:47;;;;;;;7.28;4.80;;;6.90;99.90;;;;;;4986804;28;20049;-76
2023/01/14 09:58:28;;;;;;;6.85;5.10;;;7.10;99.90;;;;;;4985588;28;20030;-76
2023/01/14 10:01:14;;;;;;;6.50;5.00;;;7.30;99.90;;;;;;4985065;28;20184;-77
2023/01/14 10:03:57;;;;;;;6.65;5.03;;;7.60;99.90;;;;;;4990683;28;20041;-77
2023/01/14 10:06:23;;;;;;;7.15;5.30;;;7.70;99.90;;;;;;4986707;28;20065;-77
2023/01/14 10:08:51;;;;;;;5.15;4.65;;;7.60;99.90;;;;;;4974722;28;20050;-77
2023/01/14 10:11:18;;;;;;;6.18;5.32;;;7.90;99.90;;;;;;4986206;28;20516;-77
2023/01/14 10:14:14;;;;;;;6.25;4.90;;;8.10;99.90;;;;;;4993422;28;20117;-77
2023/01/14 10:16:42;;;;;;;7.32;5.38;;;8.30;99.90;;;;;;4990579;28;20108;-77
2023/01/14 10:19:31;;;;;;;8.27;5.70;;;8.30;99.90;;;;;;4991296;28;20039;-77
2023/01/14 10:22:21;;;;;;;5.70;5.15;;;8.30;99.90;;;;;;4985657;28;20042;-77
2023/01/14 10:24:47;;;;;;;7.30;5.38;;;8.70;99.90;;;;;;4986942;28;20071;-77
2023/01/14 10:27:18;;;;;;;7.07;5.15;;;8.80;99.90;;;;;;4979669;28;20030;-77
2023/01/14 10:29:46;;;;;;;7.45;5.70;;;8.90;99.90;;;;;;4993759;28;20047;-76
2023/01/14 10:32:14;;;;;;;8.68;5.88;;;8.90;99.90;;;;;;5009804;28;20037;-76
2023/01/14 10:34:49;;;;;;;8.15;5.28;;;8.80;99.90;;;;;;5043707;28;20045;-76
2023/01/14 10:37:15;;;;;;;7.07;5.28;;;8.70;99.90;;;;;;5043850;28;20512;-76
2023/01/14 10:39:50;;;;;;;6.50;4.85;;;8.70;99.90;;;;;;5046735;28;20048;-76
2023/01/14 10:42:24;;;;;;;6.55;5.03;;;8.80;99.90;;;;;;5043602;28;20025;-76
2023/01/14 10:44:50;;;;;;;8.32;4.50;;;8.90;99.90;;;;;;5052565;28;20017;-77
2023/01/14 10:47:17;;;;;;;6.10;4.50;;;8.70;99.90;;;;;;5051772;28;20036;-76
2023/01/14 10:49:59;;;;;;;6.50;4.38;;;8.70;99.90;;;;;;5051780;28;20012;-77
2023/01/14 10:52:33;;;;;;;6.63;4.55;;;8.70;99.90;;;;;;5049959;28;20029;-76
2023/01/14 10:54:58;;;;;;;5.57;4.32;;;8.70;99.90;;;;;;5052884;28;20024;-76
2023/01/14 10:57:26;;;;;;;5.43;4.00;;;8.70;99.90;;;;;;5048566;28;20030;-76
2023/01/14 10:59:54;;;;;;;6.00;3.80;;;8.80;99.90;;;;;;5047673;28;20172;-76
2023/01/14 11:02:25;;;;;;;5.55;3.67;;;8.80;99.90;;;;;;5049065;28;20033;-76
2023/01/14 11:04:51;;;;;;;5.80;3.95;;;8.80;99.90;;;;;;5047426;28;20033;-76
2023/01/14 11:07:27;;;;;;;5.50;3.65;;;8.90;99.90;;;;;;5048987;28;20032;-76
2023/01/14 11:09:54;;;;;;;5.40;3.65;;;8.90;99.90;;;;;;5044926;28;20032;-76
2023/01/14 11:12:32;;;;;;;5.82;3.10;;;9.00;99.90;;;;;;5046596;28;20032;-76
2023/01/14 11:14:58;;;;;;;6.03;3.38;;;9.00;99.90;;;;;;5050580;28;20104;-77
2023/01/14 11:17:29;;;;;;;5.55;3.78;;;9.00;99.90;;;;;;5050734;28;20032;-76
2023/01/14 11:20:34;;;;;;;4.07;3.10;;;9.10;99.90;;;;;;5051619;28;20025;-76
2023/01/14 11:23:01;;;;;;;4.03;2.95;;;9.20;99.90;;;;;;5041092;28;20037;-76
2023/01/14 11:25:28;;;;;;;5.28;3.53;;;9.30;99.90;;;;;;5047312;28;20025;-76
2023/01/14 11:27:55;;;;;;;5.60;2.95;;;9.50;99.90;;;;;;5047962;28;20119;-76
2023/01/14 11:30:23;;;;;;;5.35;2.80;;;9.60;99.90;;;;;;5048060;28;20063;-76
2023/01/14 11:32:51;;;;;;;3.85;2.83;;;9.70;99.90;;;;;;5030824;28;20033;-76
2023/01/14 11:35:28;;;;;;;5.13;3.05;;;9.80;99.90;;;;;;5047203;28;20044;-76
2023/01/14 11:37:55;;;;;;;3.85;3.20;;;9.80;99.90;;;;;;5047906;28;20044;-76
2023/01/14 11:43:26;;;;;;;4.18;2.67;;;9.90;99.90;;;;;;5047103;28;20043;-76
2023/01/14 11:46:12;;;;;;;3.63;2.70;;;9.80;99.90;;;;;;5031801;28;20449;-76
2023/01/14 11:48:40;;;;;;;3.83;2.72;;;9.80;99.90;;;;;;5048621;28;20024;-76
2023/01/14 11:51:20;;;;;;;5.05;2.38;;;9.90;99.90;;;;;;5048464;28;20079;-76
2023/01/14 11:53:48;;;;;;;3.60;2.47;;;9.90;99.90;;;;;;5039989;28;20081;-76
2023/01/14 11:56:35;;;;;;;2.97;2.40;;;9.90;99.90;;;;;;5050917;28;20103;-76
2023/01/14 11:59:25;;;;;;;3.42;2.30;;;9.90;99.90;;;;;;5050874;28;20063;-76
2023/01/14 12:01:55;;;;;;;3.72;1.90;;;9.90;99.90;;;;;;5034645;28;20041;-76
2023/01/14 12:04:29;;;;;;;3.67;2.20;;;9.80;99.90;;;;;;5030727;28;20080;-75
2023/01/14 12:07:01;;;;;;;4.93;2.40;;;9.90;99.90;;;;;;5030828;28;20103;-76
2023/01/14 12:09:47;;;;;;;2.30;2.10;;;9.90;99.90;;;;;;5031195;28;20018;-76
2023/01/14 12:12:18;;;;;;;5.35;2.78;;;9.90;99.90;;;;;;5046179;28;20514;-75
2023/01/14 12:17:41;;;;;;;3.58;2.38;;;10.10;99.90;;;;;;5049502;28;20043;-75
2023/01/14 12:20:16;;;;;;;3.08;2.20;;;10.10;99.90;;;;;;5050076;28;20028;-75
2023/01/14 12:22:52;;;;;;;4.47;2.30;;;10.30;99.90;;;;;;5050412;28;20025;-75
2023/01/14 12:25:31;;;;;;;3.40;2.08;;;10.30;99.90;;;;;;5049961;28;20105;-75
2023/01/14 12:28:29;;;;;;;3.70;2.30;;;10.30;99.90;;;;;;5050744;28;20586;-75
2023/01/14 12:31:20;;;;;;;5.30;2.90;;;10.40;99.90;;;;;;5050301;28;20067;-75
2023/01/14 12:34:21;;;;;;;3.03;2.50;;;10.40;99.90;;;;;;5049087;28;20043;-75
2023/01/14 12:37:02;;;;;;;;;;;10.50;99.90;;;;;;4988622;28;20108;-75
2023/01/14 12:45:50;;;;;;;3.95;2.40;;;10.70;99.90;;;;;;4979416;28;20069;-75
2023/01/14 12:48:17;;;;;;;4.82;2.75;;;10.70;99.90;;;;;;4982460;28;20085;-75
2023/01/14 12:51:10;;;;;;;4.50;2.38;;;10.80;99.90;;;;;;4982837;28;20030;-76
2023/01/14 12:53:45;;;;;;;3.65;2.50;;;10.90;99.90;;;;;;4988849;28;20117;-76
2023/01/14 12:56:23;;;;;;;4.05;2.42;;;10.90;99.90;;;;;;4988850;28;20038;-75
2023/01/14 12:59:24;;;;;;;4.30;2.53;;;10.90;99.90;;;;;;4988076;28;20089;-75
2023/01/14 13:01:56;;;;;;;4.07;2.80;;;11.00;99.90;;;;;;4981038;28;20050;-75
2023/01/14 13:04:34;;;;;;;6.65;3.33;;;11.10;99.90;;;;;;4988675;28;20061;-76
2023/01/14 13:07:03;;;;;;;5.38;3.42;;;11.20;99.90;;;;;;4974214;28;20135;-76
2023/01/14 13:09:45;;;;;;;5.18;3.53;;;11.30;99.90;;;;;;4977787;28;20034;-75
2023/01/14 13:12:36;;;;;;;4.70;2.92;;;11.30;99.90;;;;;;4988218;28;20027;-75
2023/01/14 13:15:04;;;;;;;;;;;11.30;99.90;;;;;;5049372;28;20172;-76
2023/01/14 13:17:37;;;;;;;4.53;2.85;;;11.50;99.90;;;;;;5045001;28;19955;-75
2023/01/14 13:20:03;;;;;;;5.50;2.45;;;11.70;99.90;;;;;;5045290;28;20037;-75
2023/01/14 13:22:43;;;;;;;3.67;2.35;;;11.90;99.90;;;;;;5041443;28;20025;-77
2023/01/14 13:25:33;;;;;;;4.65;2.55;;;11.90;99.90;;;;;;5038717;28;20037;-76
2023/01/14 13:28:11;;;;;;;4.00;2.10;;;11.80;99.90;;;;;;5031630;28;20035;-76
2023/01/14 13:31:05;;;;;;;4.53;2.10;;;11.70;99.90;;;;;;5051136;28;20570;-76
2023/01/14 13:33:37;;;;;;;5.53;2.05;;;11.70;99.90;;;;;;5043914;28;20318;-76
2023/01/14 13:36:09;;;;;;;3.38;2.05;;;11.80;99.90;;;;;;5042312;28;20040;-76
2023/01/14 13:38:43;;;;;;;4.13;2.00;;;11.80;99.90;;;;;;5049979;28;20078;-77
2023/01/14 13:41:31;;;;;;;2.08;1.63;;;11.80;99.90;;;;;;5049810;28;20025;-76
2023/01/14 13:43:58;;;;;;;3.58;1.98;;;11.80;99.90;;;;;;5049261;28;20025;-77
2023/01/14 13:46:35;;;;;;;2.85;1.60;;;12.00;99.90;;;;;;5044608;28;20029;-76
2023/01/14 13:49:05;;;;;;;2.60;1.85;;;11.90;99.90;;;;;;5047711;28;20029;-76
2023/01/14 13:51:45;;;;;;;5.15;2.00;;;12.00;99.90;;;;;;5053381;28;20021;-76
2023/01/14 13:54:11;;;;;;;4.20;2.03;;;12.00;99.90;;;;;;5051969;28;20029;-76